Time;durP1;ratioP1;P1;durP2;ratioP2;P2;SDS_P1;SDS_P2;PMS_P1;PMS_P2;Temp;Humidity;BMP_temperature;BMP_pressure;BME280_temperature;BME280_humidity;BME280_pressure;Samples;Min_cycle;Max_cycle;Signal;HPM_P1;HPM_P2
2022/01/28 01:52:42;;;;;;;35.17;16.67;;;-1.70;87.70;;;-2.17;62.48;95330.13;5036223;28;20459;-59
2022/01/28 01:55:10;;;;;;;33.50;14.63;;;-1.70;89.30;;;-2.15;62.70;95324.91;5035369;28;20466;-59
2022/01/28 01:57:37;;;;;;;29.83;14.50;;;-1.60;89.40;;;-2.11;62.13;95323.06;5041453;28;20929;-57
2022/01/28 02:00:06;;;;;;;27.23;13.00;;;-1.60;89.00;;;-2.09;62.54;95319.56;5035394;28;20528;-57
2022/01/28 02:02:35;;;;;;;23.67;12.80;;;-1.60;89.50;;;-2.07;62.30;95319.50;5036473;28;20460;-58
2022/01/28 02:05:03;;;;;;;22.80;12.80;;;-1.60;88.70;;;-2.05;61.95;95315.97;5035844;28;21075;-57
2022/01/28 02:07:30;;;;;;;20.47;10.00;;;-1.60;89.00;;;-2.03;62.59;95313.34;5037695;28;20467;-58
2022/01/28 02:09:58;;;;;;;26.87;13.80;;;-1.60;89.20;;;-2.05;61.98;95310.81;5033541;28;20848;-58
2022/01/28 02:12:25;;;;;;;29.50;13.80;;;-1.60;88.10;;;-2.03;61.40;95303.88;5040526;28;20491;-57
2022/01/28 02:14:52;;;;;;;25.67;11.20;;;-1.50;88.10;;;-2.02;61.60;95299.56;5038346;28;20483;-57
2022/01/28 02:17:20;;;;;;;23.73;12.23;;;-1.50;88.20;;;-2.00;62.16;95300.34;5038774;28;20484;-59
2022/01/28 02:19:48;;;;;;;21.27;11.47;;;-1.50;88.30;;;-1.98;61.96;95303.72;5036664;28;20456;-58
2022/01/28 02:22:19;;;;;;;21.00;12.07;;;-1.50;88.10;;;-1.98;61.75;95301.16;5030214;28;20492;-58
2022/01/28 02:24:46;;;;;;;33.97;12.57;;;-1.50;88.10;;;-1.99;62.03;95299.47;5039932;28;20437;-59
2022/01/28 02:27:16;;;;;;;24.70;11.80;;;-1.50;88.10;;;-2.00;61.62;95292.59;5037225;28;20461;-59
2022/01/28 02:29:44;;;;;;;26.90;12.17;;;-1.50;87.80;;;-1.99;61.30;95292.56;5034887;28;20452;-56
2022/01/28 02:32:11;;;;;;;28.83;12.27;;;-1.50;88.00;;;-1.99;62.02;95294.31;5034204;28;20504;-59
2022/01/28 02:34:40;;;;;;;23.67;12.13;;;-1.50;87.80;;;-2.00;61.85;95297.75;5033756;28;20476;-59
2022/01/28 02:37:07;;;;;;;25.53;14.03;;;-1.50;88.00;;;-2.01;62.20;95298.69;5038740;28;20460;-56
2022/01/28 02:39:36;;;;;;;32.50;12.57;;;-1.50;87.90;;;-2.04;62.24;95293.63;5040949;28;20451;-57
2022/01/28 02:42:14;;;;;;;27.47;13.60;;;-1.50;87.90;;;-2.07;62.07;95289.41;5038856;28;20479;-57
2022/01/28 02:44:47;;;;;;;37.63;13.07;;;-1.60;87.60;;;-2.10;61.06;95288.69;5034715;28;20451;-59
2022/01/28 02:47:17;;;;;;;23.80;12.70;;;-1.60;87.50;;;-2.11;62.29;95289.56;5037256;28;20483;-58
2022/01/28 02:49:45;;;;;;;24.47;12.63;;;-1.60;87.90;;;-2.12;62.14;95280.16;5034984;28;20973;-56
2022/01/28 02:52:20;;;;;;;23.97;10.93;;;-1.60;87.90;;;-2.13;61.90;95273.34;5037226;28;21100;-56
2022/01/28 02:54:50;;;;;;;29.97;13.27;;;-1.60;87.70;;;-2.14;61.15;95279.38;5042012;28;20447;-57
2022/01/28 02:57:24;;;;;;;23.70;11.67;;;-1.60;87.80;;;-2.14;61.90;95279.38;5038256;28;20468;-59
2022/01/28 02:59:51;;;;;;;26.73;11.47;;;-1.60;88.10;;;-2.14;61.15;95281.94;5039654;28;20457;-57
2022/01/28 03:02:18;;;;;;;24.03;12.30;;;-1.70;87.90;;;-2.17;62.27;95283.75;5034967;28;20472;-57
2022/01/28 03:05:08;;;;;;;26.73;13.30;;;-1.70;87.90;;;-2.16;61.31;95275.09;5038026;28;20460;-61
2022/01/28 03:07:35;;;;;;;28.30;12.77;;;-1.70;87.70;;;-2.15;61.30;95268.22;5042590;28;20507;-59
2022/01/28 03:10:27;;;;;;;20.43;11.50;;;-1.70;87.70;;;-2.14;61.80;95263.91;5039974;28;20456;-57
2022/01/28 03:15:45;;;;;;;34.83;13.70;;;-1.60;87.80;;;-2.13;61.30;95263.03;5014504;28;20486;-60
2022/01/28 03:18:16;;;;;;;23.87;12.23;;;-1.60;88.00;;;-2.13;62.04;95263.03;5037830;28;20875;-57
2022/01/28 03:20:56;;;;;;;35.90;14.30;;;-1.60;87.70;;;-2.14;62.17;95259.59;5041041;28;20560;-59
2022/01/28 03:23:23;;;;;;;29.90;14.40;;;-1.60;87.70;;;-2.14;61.73;95258.75;5036295;28;21072;-59
2022/01/28 03:25:52;;;;;;;40.57;18.57;;;-1.60;87.80;;;-2.13;61.97;95252.72;5035320;28;21674;-58
2022/01/28 03:28:20;;;;;;;61.97;22.80;;;-1.60;87.90;;;-2.14;61.89;95248.44;5042691;28;20456;-60
2022/01/28 03:30:48;;;;;;;44.57;19.20;;;-1.60;87.70;;;-2.16;61.81;95233.03;5034836;28;20558;-59
2022/01/28 03:33:15;;;;;;;49.53;19.60;;;-1.60;87.70;;;-2.22;61.31;95228.94;5035546;28;20449;-58
2022/01/28 03:35:42;;;;;;;47.30;20.80;;;-1.70;87.50;;;-2.31;61.20;95226.69;5039130;28;20865;-59
2022/01/28 03:38:12;;;;;;;48.43;21.03;;;-1.80;87.60;;;-2.38;62.43;95228.63;5036987;28;20988;-57
2022/01/28 03:40:42;;;;;;;50.90;19.63;;;-1.80;88.20;;;-2.39;61.57;95226.13;5037653;28;20874;-57
2022/01/28 03:43:10;;;;;;;38.40;16.33;;;-1.90;88.00;;;-2.39;61.61;95221.78;5038502;28;20459;-57
2022/01/28 03:45:38;;;;;;;50.43;21.33;;;-1.90;88.10;;;-2.39;61.37;95223.53;5037450;28;20472;-57
2022/01/28 03:48:06;;;;;;;47.53;20.07;;;-1.90;88.40;;;-2.43;62.40;95219.38;5037116;28;20468;-60
2022/01/28 03:50:34;;;;;;;47.43;21.10;;;-1.90;88.30;;;-2.48;61.94;95216.13;5042695;28;20483;-59
2022/01/28 03:53:01;;;;;;;52.70;22.30;;;-2.00;88.50;;;-2.51;62.61;95219.66;5037595;28;20579;-56
2022/01/28 03:55:29;;;;;;;51.57;21.97;;;-2.00;88.60;;;-2.50;61.43;95220.50;5034781;28;21044;-58
2022/01/28 03:57:56;;;;;;;51.50;22.90;;;-2.00;88.20;;;-2.50;62.12;95216.19;5042207;28;20459;-58
2022/01/28 04:00:28;;;;;;;63.83;25.50;;;-2.00;88.20;;;-2.50;62.00;95211.03;5039177;28;20892;-59
2022/01/28 04:03:04;;;;;;;55.27;23.17;;;-2.00;87.90;;;-2.54;61.43;95205.16;5037018;28;20436;-60
2022/01/28 04:13:55;;;;;;;54.70;25.50;;;-2.10;87.60;;;-2.66;60.95;95210.72;5009444;28;20449;-59
2022/01/28 04:17:18;;;;;;;55.03;27.33;;;-2.10;87.60;;;-2.66;61.34;95208.16;5033722;28;20469;-60
2022/01/28 04:19:19;;;;;;;53.13;22.37;;;-2.10;87.40;;;-2.67;61.39;95221.06;5035848;28;20539;-58
2022/01/28 04:21:46;;;;;;;47.57;23.37;;;-2.10;87.60;;;-2.69;62.28;95222.88;5041449;28;20930;-58
2022/01/28 04:24:14;;;;;;;47.57;23.30;;;-2.20;87.70;;;-2.69;61.73;95230.59;5035957;28;20968;-59
2022/01/28 04:26:41;;;;;;;56.83;24.43;;;-2.20;87.60;;;-2.70;62.12;95219.44;5036062;28;20507;-57
2022/01/28 04:29:11;;;;;;;49.73;21.97;;;-2.20;87.70;;;-2.69;61.78;95210.00;5034435;28;20449;-59
2022/01/28 04:31:43;;;;;;;57.10;22.23;;;-2.10;88.30;;;-2.67;62.36;95203.88;5036763;28;20969;-57
2022/01/28 04:34:11;;;;;;;50.47;22.73;;;-2.10;88.60;;;-2.66;62.37;95215.88;5032778;28;20437;-57
2022/01/28 04:36:46;;;;;;;48.50;22.17;;;-2.10;88.60;;;-2.65;62.96;95214.13;5039034;28;20711;-59
2022/01/28 04:39:20;;;;;;;44.33;20.17;;;-2.10;88.70;;;-2.66;61.58;95218.44;5044478;28;20451;-58
2022/01/28 04:41:57;;;;;;;53.20;23.87;;;-2.10;88.90;;;-2.63;62.54;95210.63;5038421;28;20472;-57
2022/01/28 04:44:32;;;;;;;41.77;19.23;;;-2.10;88.60;;;-2.62;63.17;95211.44;5033557;28;20443;-59
2022/01/28 04:47:06;;;;;;;52.40;24.27;;;-2.10;89.10;;;-2.63;62.30;95220.91;5036264;28;20540;-57
2022/01/28 04:49:46;;;;;;;44.87;19.20;;;-2.10;88.80;;;-2.65;62.25;95224.44;5034893;28;20459;-57
2022/01/28 04:55:06;;;;;;;41.27;21.03;;;-2.10;88.10;;;-2.65;61.45;95227.88;5012137;28;20631;-59
2022/01/28 04:57:44;;;;;;;48.13;21.97;;;-2.10;88.10;;;-2.64;62.30;95224.38;5039753;28;20542;-57
2022/01/28 05:00:23;;;;;;;45.50;20.00;;;-2.10;88.10;;;-2.63;62.07;95228.66;5035379;28;20513;-57
2022/01/28 05:03:07;;;;;;;57.53;20.53;;;-2.10;88.20;;;-2.64;61.23;95226.94;5033025;28;20436;-58
2022/01/28 05:11:22;;;;;;;49.67;22.37;;;-2.10;88.00;;;-2.64;62.31;95224.38;5009869;28;20474;-58
2022/01/28 05:14:24;;;;;;;46.10;22.43;;;-2.10;87.90;;;-2.66;61.32;95215.88;5037554;28;20996;-59
2022/01/28 05:28:03;;;;;;;71.20;29.40;;;-2.20;87.50;;;-2.75;61.62;95232.47;5034870;28;20459;-58
2022/01/28 05:30:30;;;;;;;64.57;29.13;;;-2.20;87.50;;;-2.77;62.19;95231.69;5034242;28;20596;-59
2022/01/28 05:32:58;;;;;;;70.53;32.20;;;-2.20;87.50;;;-2.79;61.07;95227.47;5034332;28;20503;-59
2022/01/28 05:35:27;;;;;;;67.40;29.40;;;-2.20;87.50;;;-2.81;61.86;95229.25;5035884;28;20866;-59
2022/01/28 05:37:54;;;;;;;66.20;31.30;;;-2.20;87.70;;;-2.84;61.68;95240.47;5036108;28;20612;-58
2022/01/28 05:40:22;;;;;;;71.27;28.30;;;-2.30;87.50;;;-2.85;61.83;95240.53;5035226;28;20452;-59
2022/01/28 05:42:49;;;;;;;59.87;28.00;;;-2.30;87.70;;;-2.86;61.41;95236.31;5032253;28;20452;-59
2022/01/28 05:45:17;;;;;;;61.87;30.40;;;-2.30;87.80;;;-2.88;61.59;95232.03;5035355;28;20448;-58
2022/01/28 05:47:44;;;;;;;89.03;35.20;;;-2.30;87.80;;;-2.92;62.15;95240.72;5038708;28;20459;-58
2022/01/28 05:50:12;;;;;;;89.63;34.37;;;-2.30;87.90;;;-2.88;61.76;95237.19;5035680;28;20499;-58
2022/01/28 05:52:40;;;;;;;62.53;27.17;;;-2.30;87.80;;;-2.89;61.27;95226.94;5031917;28;20859;-59
2022/01/28 05:55:09;;;;;;;60.50;28.83;;;-2.30;87.50;;;-2.92;62.49;95234.75;5034698;28;20703;-59
2022/01/28 05:57:36;;;;;;;70.43;32.90;;;-2.30;87.60;;;-2.92;61.83;95230.44;5034761;28;20460;-58
2022/01/28 06:00:05;;;;;;;63.10;28.43;;;-2.30;87.80;;;-2.89;62.22;95230.34;5040087;28;20510;-58
2022/01/28 06:02:33;;;;;;;57.07;29.30;;;-2.30;88.20;;;-2.77;62.28;95241.16;5036928;28;20975;-59
2022/01/28 06:05:00;;;;;;;64.47;28.90;;;-2.30;87.90;;;-2.62;61.75;95245.75;5036531;28;20451;-57
2022/01/28 06:07:27;;;;;;;74.07;31.07;;;-2.20;87.90;;;-2.41;61.98;95240.78;5035095;28;20477;-59
2022/01/28 06:09:56;;;;;;;63.73;31.30;;;-2.00;87.90;;;-2.19;60.82;95253.75;5040807;28;20456;-58
2022/01/28 06:12:23;;;;;;;73.43;30.80;;;-1.80;87.80;;;-1.96;60.58;95254.69;5036379;28;20496;-57
2022/01/28 06:14:50;;;;;;;66.80;32.03;;;-1.60;87.40;;;-1.84;60.21;95247.34;5042256;28;20454;-58
2022/01/28 06:17:18;;;;;;;71.43;31.73;;;-1.50;86.40;;;-1.79;60.57;95256.66;5030824;28;20527;-58
2022/01/28 06:19:45;;;;;;;74.83;30.57;;;-1.30;86.10;;;-1.56;60.46;95261.81;5039288;28;20448;-58
2022/01/28 06:22:12;;;;;;;74.87;34.67;;;-1.20;87.00;;;-1.18;60.11;95264.66;5037829;28;20819;-58
2022/01/28 06:24:40;;;;;;;63.33;31.23;;;-0.90;86.40;;;-0.73;59.33;95255.16;5040123;28;20460;-58
2022/01/28 06:27:09;;;;;;;70.73;30.80;;;-0.50;85.70;;;-0.27;58.62;95262.78;5042009;28;21010;-58
2022/01/28 06:29:36;;;;;;;69.70;31.30;;;-0.10;84.90;;;0.22;57.84;95273.59;5040943;28;20814;-59
2022/01/28 06:32:05;;;;;;;69.90;32.83;;;0.40;84.00;;;0.70;57.41;95268.88;5036877;28;20494;-60
2022/01/28 06:34:33;;;;;;;62.93;32.17;;;0.80;82.50;;;1.19;55.63;95270.91;5041683;28;20454;-58
2022/01/28 06:37:01;;;;;;;58.00;27.20;;;1.30;80.60;;;1.67;54.14;95264.25;5039842;28;20929;-59
2022/01/28 06:39:32;;;;;;;55.03;24.90;;;1.70;78.40;;;2.13;53.78;95268.88;5037605;28;20979;-59
2022/01/28 06:41:59;;;;;;;53.53;24.70;;;2.10;78.20;;;2.64;53.10;95267.06;5038068;28;20521;-58
2022/01/28 06:44:29;;;;;;;52.33;26.03;;;2.50;77.20;;;3.15;53.73;95258.28;5041771;28;20479;-57
2022/01/28 06:46:56;;;;;;;47.00;22.43;;;3.00;77.10;;;3.71;52.24;95250.78;5040474;28;20618;-59
2022/01/28 06:49:24;;;;;;;37.83;18.70;;;3.60;75.90;;;4.34;51.64;95257.50;5037377;28;20457;-58
2022/01/28 06:51:51;;;;;;;52.60;22.63;;;4.30;74.40;;;5.01;50.48;95260.31;5039907;28;20498;-59
2022/01/28 06:54:18;;;;;;;38.63;21.33;;;5.00;71.90;;;5.71;50.14;95263.72;5035139;28;20456;-58
2022/01/28 06:56:46;;;;;;;43.40;20.83;;;5.80;72.60;;;6.37;49.94;95275.03;5040476;28;20476;-58
2022/01/28 06:59:13;;;;;;;48.13;20.50;;;6.50;71.40;;;7.02;48.71;95273.19;5036667;28;20480;-58
2022/01/28 07:01:42;;;;;;;42.83;21.03;;;7.20;68.60;;;7.66;47.29;95272.13;5039193;28;20562;-58
2022/01/28 07:04:09;;;;;;;48.70;20.50;;;7.90;66.10;;;8.26;47.54;95271.13;5039005;28;20453;-60
2022/01/28 07:06:37;;;;;;;54.10;25.77;;;8.50;66.00;;;8.82;46.18;95274.00;5036192;28;20590;-59
2022/01/28 07:09:04;;;;;;;89.37;44.57;;;9.00;62.10;;;9.30;45.07;95282.41;5041947;28;20455;-58
2022/01/28 07:11:31;;;;;;;130.70;54.47;;;9.50;60.00;;;9.67;42.26;95281.25;5041103;28;20476;-58
2022/01/28 07:13:59;;;;;;;158.47;66.50;;;9.90;55.70;;;9.86;42.28;95277.97;5042956;28;20495;-58
2022/01/28 07:16:27;;;;;;;158.97;73.77;;;10.20;54.50;;;10.08;42.64;95282.28;5045308;28;21004;-59
2022/01/28 07:18:55;;;;;;;152.03;69.57;;;10.50;54.30;;;10.34;42.86;95282.78;5042033;28;20509;-58
2022/01/28 07:21:23;;;;;;;148.37;70.90;;;10.80;55.00;;;10.33;41.80;95277.66;5040429;28;20487;-58
2022/01/28 07:23:50;;;;;;;189.30;66.83;;;10.80;53.30;;;9.88;41.68;95276.03;5036738;28;20755;-59
2022/01/28 07:26:17;;;;;;;128.33;65.33;;;10.50;51.40;;;9.56;42.29;95276.03;5035013;28;20853;-57
2022/01/28 07:28:46;;;;;;;134.50;59.50;;;10.30;52.00;;;9.68;41.79;95272.41;5033464;28;20461;-60
2022/01/28 07:31:16;;;;;;;141.57;67.37;;;10.30;52.00;;;10.11;42.29;95282.03;5038173;28;21024;-58
2022/01/28 07:33:43;;;;;;;117.77;56.37;;;10.50;52.90;;;10.63;41.24;95281.28;5037172;28;20913;-59
2022/01/28 07:36:12;;;;;;;121.60;56.20;;;10.90;52.20;;;11.08;40.61;95292.31;5042157;28;20480;-58
2022/01/28 07:38:39;;;;;;;105.27;49.23;;;11.30;51.40;;;11.53;39.65;95285.00;5038348;28;20479;-58
2022/01/28 07:41:07;;;;;;;90.50;42.90;;;11.60;50.00;;;12.01;38.70;95292.16;5038946;28;20810;-58
2022/01/28 07:43:37;;;;;;;89.70;41.40;;;12.00;49.00;;;12.49;38.72;95293.94;5040342;28;20460;-61
2022/01/28 07:46:05;;;;;;;170.47;64.07;;;12.50;49.60;;;12.90;36.94;95291.06;5038470;28;20634;-61
2022/01/28 07:48:32;;;;;;;90.60;53.33;;;12.90;47.30;;;13.30;36.28;95286.47;5038743;28;20892;-58
2022/01/28 07:51:00;;;;;;;31.83;17.20;;;13.30;46.20;;;13.69;36.38;95297.66;5037473;28;20472;-60
2022/01/28 07:53:28;;;;;;;29.67;16.60;;;13.70;46.20;;;14.06;35.40;95309.13;5038377;28;20499;-59
2022/01/28 07:55:56;;;;;;;31.50;18.97;;;14.10;45.40;;;14.40;35.43;95311.09;5038428;28;20536;-62
2022/01/28 07:58:23;;;;;;;31.13;16.53;;;14.50;44.60;;;14.76;34.70;95313.72;5036493;28;20456;-59
2022/01/28 08:00:50;;;;;;;42.17;16.93;;;14.80;43.70;;;15.12;34.27;95305.66;5035968;28;20541;-60
2022/01/28 08:03:18;;;;;;;37.10;17.40;;;15.20;43.60;;;15.49;33.55;95309.81;5036048;28;20634;-61
2022/01/28 08:05:47;;;;;;;24.90;15.10;;;15.50;42.90;;;15.84;32.92;95306.16;5038340;28;20550;-60
2022/01/28 08:08:18;;;;;;;31.57;16.23;;;15.80;42.00;;;16.23;32.23;95294.16;5041430;28;20681;-60
2022/01/28 08:10:47;;;;;;;36.13;16.57;;;16.20;40.90;;;16.56;32.13;95295.00;5037048;28;20475;-61
2022/01/28 08:13:14;;;;;;;33.87;17.53;;;16.50;40.80;;;16.49;31.40;95284.19;5035746;28;20579;-59
2022/01/28 08:15:42;;;;;;;32.83;17.07;;;16.50;40.10;;;16.11;31.81;95275.91;5038081;28;20485;-59
2022/01/28 08:18:09;;;;;;;36.73;16.60;;;16.40;39.20;;;15.80;31.14;95272.19;5039915;28;20837;-60
2022/01/28 08:20:36;;;;;;;39.60;17.80;;;16.10;38.40;;;15.40;30.60;95262.09;5037456;28;20472;-61
2022/01/28 08:23:04;;;;;;;34.07;15.93;;;15.80;37.30;;;15.11;30.43;95266.94;5038747;28;20456;-61
2022/01/28 08:25:33;;;;;;;33.30;16.40;;;15.40;37.20;;;15.04;31.13;95272.00;5040580;28;20479;-58
2022/01/28 08:28:02;;;;;;;35.60;15.67;;;15.10;38.20;;;15.24;31.48;95262.00;5039374;28;20456;-59
2022/01/28 08:30:30;;;;;;;29.67;15.27;;;15.10;39.10;;;15.42;31.52;95264.56;5038548;28;20527;-60
2022/01/28 08:32:57;;;;;;;35.77;15.20;;;15.20;39.40;;;15.39;31.30;95262.25;5036797;28;20488;-60
2022/01/28 08:35:29;;;;;;;43.80;25.70;;;15.30;38.90;;;15.45;31.45;95266.09;5037962;28;20484;-59
2022/01/28 08:37:57;;;;;;;78.10;42.20;;;15.40;39.00;;;15.47;31.25;95266.75;5036733;28;20771;-59
2022/01/28 08:40:25;;;;;;;97.83;48.63;;;15.40;38.70;;;15.04;30.72;95275.50;5035392;28;20531;-58
2022/01/28 08:42:52;;;;;;;99.13;47.77;;;15.10;37.20;;;14.38;31.21;95271.56;5041412;28;20474;-60
2022/01/28 08:45:21;;;;;;;91.83;46.37;;;14.70;38.10;;;13.64;32.28;95260.28;5036637;28;20547;-59
2022/01/28 08:47:49;;;;;;;80.30;40.30;;;14.10;39.30;;;13.16;32.37;95270.09;5037026;28;20466;-59
2022/01/28 08:50:16;;;;;;;70.87;39.17;;;13.60;38.30;;;13.17;31.35;95276.25;5038080;28;20468;-59
2022/01/28 08:52:46;;;;;;;90.57;37.90;;;13.50;38.20;;;13.53;32.65;95279.00;5040213;28;20491;-60
2022/01/28 08:55:14;;;;;;;66.23;34.70;;;13.60;39.90;;;14.04;32.87;95276.72;5039312;28;20449;-59
2022/01/28 08:57:43;;;;;;;70.67;32.60;;;13.90;40.20;;;14.57;31.99;95282.94;5036527;28;20456;-60
2022/01/28 09:00:13;;;;;;;76.27;33.00;;;14.30;40.00;;;14.86;31.32;95283.50;5032110;28;20532;-59
2022/01/28 09:02:43;;;;;;;61.23;30.63;;;14.60;39.10;;;14.73;30.67;95285.72;5030738;28;20433;-61
2022/01/28 09:05:10;;;;;;;48.67;28.17;;;14.60;38.00;;;14.21;31.36;95286.47;5031703;28;20961;-59
2022/01/28 09:07:37;;;;;;;48.40;23.03;;;14.30;37.60;;;13.66;31.47;95286.56;5030238;28;20453;-60
2022/01/28 09:10:10;;;;;;;50.43;22.80;;;13.90;37.70;;;13.13;31.45;95288.06;5031069;28;20456;-61
2022/01/28 09:12:46;;;;;;;43.50;22.37;;;13.50;38.10;;;12.60;32.62;95292.13;5036856;28;20452;-59
2022/01/28 09:15:14;;;;;;;42.00;22.90;;;12.90;38.90;;;12.05;32.95;95290.06;5041770;28;20497;-60
2022/01/28 09:17:43;;;;;;;47.80;25.13;;;12.40;39.30;;;11.49;33.42;95287.03;5036387;28;20444;-59
2022/01/28 09:20:11;;;;;;;57.80;26.80;;;11.90;39.40;;;11.02;34.22;95297.28;5037464;28;20514;-58
2022/01/28 09:22:38;;;;;;;56.90;27.60;;;11.50;40.30;;;10.58;35.03;95295.69;5037440;28;20568;-59
2022/01/28 09:25:07;;;;;;;63.23;29.23;;;11.00;41.20;;;10.14;35.66;95286.22;5036436;28;20468;-58
2022/01/28 09:27:34;;;;;;;57.70;27.83;;;10.60;41.40;;;9.77;35.72;95295.31;5038704;28;20462;-58
2022/01/28 09:30:01;;;;;;;53.37;28.60;;;10.20;41.80;;;9.39;35.49;95290.50;5038673;28;20479;-58
2022/01/28 09:32:29;;;;;;;73.83;32.23;;;9.80;42.80;;;8.96;36.75;95300.78;5039721;28;20457;-57
2022/01/28 09:34:57;;;;;;;66.93;31.20;;;9.40;43.60;;;8.59;36.89;95305.44;5034980;28;20491;-60
2022/01/28 09:37:25;;;;;;;74.30;32.53;;;9.00;44.60;;;8.26;37.54;95304.38;5037259;28;20492;-62
2022/01/28 09:39:52;;;;;;;70.90;34.30;;;8.70;45.20;;;7.98;38.27;95303.81;5037964;28;20463;-59
2022/01/28 09:42:23;;;;;;;72.03;35.50;;;8.30;45.90;;;7.75;38.60;95302.03;5038293;28;20469;-61
2022/01/28 09:44:50;;;;;;;68.20;32.50;;;8.10;46.20;;;7.51;39.17;95284.53;5036524;28;20436;-58
2022/01/28 09:47:17;;;;;;;62.63;31.37;;;7.90;46.80;;;7.33;39.55;95284.09;5038783;28;20503;-58
2022/01/28 09:49:45;;;;;;;62.63;31.37;;;7.70;47.50;;;7.18;40.47;95292.06;5038889;28;20475;-59
2022/01/28 09:52:14;;;;;;;55.87;29.97;;;7.50;48.00;;;7.05;40.48;95283.44;5034677;28;20487;-60
2022/01/28 09:54:43;;;;;;;67.20;34.63;;;7.30;48.30;;;6.96;40.47;95286.69;5036156;28;21011;-58
2022/01/28 09:57:10;;;;;;;70.50;32.90;;;7.20;48.80;;;6.88;41.16;95289.84;5037966;28;21078;-59
2022/01/28 09:59:38;;;;;;;81.83;34.07;;;7.10;49.30;;;6.81;41.49;95299.88;5041379;28;20460;-59
2022/01/28 10:02:06;;;;;;;59.43;28.80;;;7.10;49.50;;;6.75;41.13;95297.69;5041717;28;20564;-59
2022/01/28 10:04:33;;;;;;;78.77;30.23;;;7.00;49.70;;;6.71;41.24;95303.22;5046559;28;20471;-59
2022/01/28 10:07:09;;;;;;;54.43;29.17;;;6.90;50.00;;;6.62;41.72;95296.88;5040753;28;20478;-59
2022/01/28 10:09:41;;;;;;;50.63;28.43;;;6.90;50.20;;;6.55;41.87;95301.69;5046333;28;20526;-58
2022/01/28 10:12:20;;;;;;;62.10;27.50;;;6.80;50.20;;;6.51;41.70;95294.16;5049015;28;20528;-58
2022/01/28 10:15:03;;;;;;;62.50;28.73;;;6.80;50.10;;;6.49;41.74;95290.81;5038516;28;20480;-59
2022/01/28 10:17:50;;;;;;;60.77;28.50;;;6.70;50.50;;;6.40;42.42;95302.72;5042375;28;20439;-60
2022/01/28 10:20:18;;;;;;;67.63;27.20;;;6.70;50.70;;;6.33;42.38;95294.44;5042920;28;20506;-60
2022/01/28 10:22:51;;;;;;;67.57;28.07;;;6.60;50.90;;;6.25;42.31;95300.19;5041772;28;20453;-58
2022/01/28 10:25:28;;;;;;;64.33;26.77;;;6.50;51.00;;;6.20;42.61;95309.28;5043674;28;20539;-58
2022/01/28 10:28:04;;;;;;;47.83;27.70;;;6.50;51.20;;;6.14;42.52;95305.31;5043091;28;20653;-58
2022/01/28 10:30:31;;;;;;;48.97;27.43;;;6.40;51.60;;;6.09;42.72;95305.59;5046402;28;20475;-58
2022/01/28 10:33:15;;;;;;;59.63;28.60;;;6.40;51.90;;;6.05;43.34;95304.13;5039511;28;20833;-58
2022/01/28 10:35:54;;;;;;;71.30;27.37;;;6.30;52.20;;;5.99;43.10;95301.91;5041110;28;20470;-59
2022/01/28 10:38:31;;;;;;;45.90;23.73;;;6.30;52.30;;;5.97;43.06;95298.59;5042632;28;20439;-57
2022/01/28 10:41:12;;;;;;;50.87;22.93;;;6.20;52.30;;;5.95;43.21;95294.34;5044431;28;20476;-57
2022/01/28 10:43:44;;;;;;;60.03;22.93;;;6.20;52.70;;;5.95;43.29;95290.00;5044518;28;20440;-58
2022/01/28 10:46:12;;;;;;;66.20;27.03;;;6.20;52.60;;;5.98;43.38;95291.56;5040682;28;20472;-60
2022/01/28 10:49:01;;;;;;;55.50;27.00;;;6.20;52.80;;;6.02;43.45;95296.50;5044436;28;20463;-58
2022/01/28 10:51:40;;;;;;;65.33;25.20;;;6.20;53.20;;;6.07;43.69;95302.28;5040902;28;20538;-59
2022/01/28 10:54:08;;;;;;;50.87;23.50;;;6.30;53.30;;;6.10;43.60;95302.06;5044710;28;20559;-60
2022/01/28 10:56:54;;;;;;;47.03;24.93;;;6.30;53.30;;;6.11;43.41;95297.66;5043118;28;21042;-58
2022/01/28 10:59:24;;;;;;;42.90;18.43;;;6.30;53.30;;;6.12;43.79;95299.34;5044886;28;20478;-58
2022/01/28 11:01:51;;;;;;;43.50;21.70;;;6.40;53.80;;;6.15;44.08;95295.69;5038186;28;20637;-57
2022/01/28 11:04:20;;;;;;;41.70;20.80;;;6.40;53.70;;;6.16;43.64;95289.53;5037539;28;20513;-60
2022/01/28 11:06:48;;;;;;;34.40;19.00;;;6.40;53.80;;;6.18;44.03;95285.88;5043311;28;20467;-60
2022/01/28 11:09:17;;;;;;;37.40;18.00;;;6.40;53.90;;;6.22;44.25;95283.91;5042364;28;20444;-58
2022/01/28 11:11:44;;;;;;;37.87;17.63;;;6.40;54.20;;;6.26;44.65;95286.19;5040946;28;20460;-58
2022/01/28 11:14:13;;;;;;;35.20;17.60;;;6.50;54.40;;;6.28;44.54;95284.31;5036962;28;20496;-58
2022/01/28 11:16:41;;;;;;;38.23;12.17;;;6.50;54.60;;;6.30;44.61;95276.38;5038760;28;20464;-59
2022/01/28 11:19:12;;;;;;;12.53;8.13;;;6.50;55.20;;;6.34;45.06;95277.84;5041898;28;20540;-58
2022/01/28 11:22:11;;;;;;;8.97;5.03;;;6.50;55.20;;;6.40;46.14;95282.66;5035587;28;20476;-59
2022/01/28 11:25:01;;;;;;;4.33;3.90;;;6.60;57.20;;;6.43;46.36;95282.44;5026895;28;20487;-59
2022/01/28 11:27:31;;;;;;;8.50;5.07;;;6.60;57.10;;;6.46;46.75;95271.78;5035205;28;20968;-59
2022/01/28 11:30:25;;;;;;;10.53;4.07;;;6.70;58.00;;;6.54;46.91;95270.44;5035198;28;20459;-58
2022/01/28 11:33:11;;;;;;;7.13;3.97;;;6.70;58.70;;;6.59;46.92;95270.94;5038213;28;20515;-59
2022/01/28 11:35:40;;;;;;;6.03;4.00;;;6.80;58.40;;;6.61;47.53;95269.06;5038689;28;20504;-59
2022/01/28 11:38:42;;;;;;;8.47;4.53;;;6.80;59.30;;;6.64;47.06;95274.91;5037374;28;20562;-59
2022/01/28 11:41:14;;;;;;;5.93;3.57;;;6.80;59.30;;;6.65;47.24;95275.75;5040181;28;20467;-59
2022/01/28 11:43:50;;;;;;;5.20;3.87;;;6.80;59.70;;;6.65;47.18;95270.53;5037582;28;20445;-59
2022/01/28 11:46:21;;;;;;;4.93;4.17;;;6.80;59.10;;;6.71;46.92;95266.63;5038178;28;20479;-59
2022/01/28 11:49:19;;;;;;;5.90;4.20;;;6.90;59.20;;;6.72;48.01;95271.75;5036582;28;20461;-58
2022/01/28 11:51:46;;;;;;;5.40;4.67;;;6.90;60.80;;;6.72;46.96;95271.75;5036230;28;20495;-59
2022/01/28 11:54:15;;;;;;;7.03;4.50;;;6.90;59.40;;;6.71;47.38;95270.09;5038493;28;20484;-59
2022/01/28 11:57:13;;;;;;;4.93;4.30;;;6.90;60.40;;;6.76;47.84;95272.41;5035120;28;20475;-60
2022/01/28 11:59:40;;;;;;;8.63;4.60;;;6.90;60.70;;;6.75;48.20;95261.09;5039480;28;21046;-59
2022/01/28 12:02:11;;;;;;;15.30;10.07;;;6.90;60.80;;;6.74;48.21;95259.44;5035195;28;20499;-59
2022/01/28 12:04:40;;;;;;;8.60;5.20;;;6.90;60.80;;;6.75;47.93;95255.84;5040188;28;20477;-58
2022/01/28 12:07:10;;;;;;;8.30;5.60;;;6.90;60.80;;;6.77;48.05;95255.75;5042238;28;20476;-59
2022/01/28 12:09:38;;;;;;;8.20;5.47;;;6.90;61.40;;;6.77;48.04;95253.13;5037529;28;20462;-58
2022/01/28 12:12:10;;;;;;;11.07;5.63;;;6.90;61.60;;;6.81;48.18;95250.19;5037931;28;20495;-60
2022/01/28 12:14:59;;;;;;;12.03;6.10;;;7.00;61.60;;;6.87;48.15;95248.13;5038602;28;20969;-58
2022/01/28 12:17:48;;;;;;;15.17;5.87;;;7.00;62.20;;;6.97;48.96;95249.13;5043732;28;21035;-60
2022/01/28 12:20:38;;;;;;;16.13;6.33;;;7.10;62.70;;;7.11;48.12;95249.00;5038235;28;20445;-58
2022/01/28 12:23:37;;;;;;;9.67;5.30;;;7.20;62.20;;;7.24;48.52;95241.09;5038244;28;20486;-60
2022/01/28 12:26:05;;;;;;;7.37;5.03;;;7.30;62.30;;;7.33;47.85;95231.75;5035418;28;20562;-59
2022/01/28 12:28:50;;;;;;;11.50;5.73;;;7.50;62.50;;;7.44;48.63;95234.44;5039644;28;20467;-60
2022/01/28 12:31:30;;;;;;;13.00;6.17;;;7.60;62.20;;;7.52;48.41;95234.69;5036728;28;20520;-58
2022/01/28 12:34:02;;;;;;;8.90;6.03;;;7.60;62.70;;;7.57;48.77;95234.34;5039670;28;20542;-59
2022/01/28 12:36:32;;;;;;;12.10;7.57;;;7.70;63.00;;;7.58;48.78;95236.03;5034834;28;20798;-59
2022/01/28 12:39:19;;;;;;;9.97;5.70;;;7.70;63.50;;;7.58;48.54;95243.06;5034955;28;20457;-60
2022/01/28 12:41:55;;;;;;;13.40;6.57;;;7.80;63.40;;;7.55;48.43;95233.66;5042024;28;20556;-60
2022/01/28 12:44:23;;;;;;;19.73;9.47;;;7.70;62.70;;;7.59;48.16;95234.25;5036819;28;20463;-58
2022/01/28 12:46:58;;;;;;;16.07;8.87;;;7.80;63.00;;;7.62;48.63;95234.03;5039603;28;20473;-60
2022/01/28 12:49:28;;;;;;;15.23;8.03;;;7.80;62.60;;;7.67;47.64;95231.91;5039527;28;20443;-60
2022/01/28 12:52:01;;;;;;;8.10;5.63;;;7.80;61.70;;;7.73;47.37;95236.69;5037523;28;20491;-58